sensor_id;sensor_type;location;lat;lon;timestamp;P1;durP1;ratioP1;P2;durP2;ratioP2
61250;SDS011;47126;47.508;8.590;2022-11-20T00:01:48;14.48;;;5.72;;
61250;SDS011;47126;47.508;8.590;2022-11-20T00:04:14;13.05;;;6.55;;
61250;SDS011;47126;47.508;8.590;2022-11-20T00:06:40;12.77;;;6.70;;
61250;SDS011;47126;47.508;8.590;2022-11-20T00:09:08;11.82;;;6.40;;
61250;SDS011;47126;47.508;8.590;2022-11-20T00:11:35;13.45;;;6.78;;
61250;SDS011;47126;47.508;8.590;2022-11-20T00:14:01;14.65;;;5.78;;
61250;SDS011;47126;47.508;8.590;2022-11-20T00:16:28;15.27;;;5.75;;
61250;SDS011;47126;47.508;8.590;2022-11-20T00:18:55;13.15;;;5.70;;
61250;SDS011;47126;47.508;8.590;2022-11-20T00:21:22;11.85;;;5.63;;
61250;SDS011;47126;47.508;8.590;2022-11-20T00:23:49;11.32;;;5.90;;
61250;SDS011;47126;47.508;8.590;2022-11-20T00:26:16;10.75;;;5.10;;
61250;SDS011;47126;47.508;8.590;2022-11-20T00:28:42;13.25;;;6.60;;
61250;SDS011;47126;47.508;8.590;2022-11-20T00:31:13;13.13;;;5.88;;
61250;SDS011;47126;47.508;8.590;2022-11-20T00:33:39;16.43;;;5.83;;
61250;SDS011;47126;47.508;8.590;2022-11-20T00:36:06;12.70;;;6.70;;
61250;SDS011;47126;47.508;8.590;2022-11-20T00:38:33;19.40;;;8.30;;
61250;SDS011;47126;47.508;8.590;2022-11-20T00:41:00;14.13;;;7.13;;
61250;SDS011;47126;47.508;8.590;2022-11-20T00:43:26;16.95;;;7.15;;
61250;SDS011;47126;47.508;8.590;2022-11-20T00:48:27;15.90;;;6.60;;
61250;SDS011;47126;47.508;8.590;2022-11-20T00:50:54;16.50;;;7.05;;
61250;SDS011;47126;47.508;8.590;2022-11-20T00:53:20;14.40;;;6.78;;
61250;SDS011;47126;47.508;8.590;2022-11-20T00:55:56;13.48;;;6.88;;
61250;SDS011;47126;47.508;8.590;2022-11-20T00:58:23;12.52;;;6.13;;
61250;SDS011;47126;47.508;8.590;2022-11-20T01:00:49;14.55;;;8.20;;
61250;SDS011;47126;47.508;8.590;2022-11-20T01:03:18;15.63;;;8.25;;
61250;SDS011;47126;47.508;8.590;2022-11-20T01:05:44;14.25;;;6.50;;
61250;SDS011;47126;47.508;8.590;2022-11-20T01:08:10;15.45;;;7.80;;
61250;SDS011;47126;47.508;8.590;2022-11-20T01:10:36;13.43;;;6.75;;
61250;SDS011;47126;47.508;8.590;2022-11-20T01:13:02;19.00;;;7.47;;
61250;SDS011;47126;47.508;8.590;2022-11-20T01:15:52;12.77;;;6.13;;
61250;SDS011;47126;47.508;8.590;2022-11-20T01:18:18;13.45;;;6.70;;
61250;SDS011;47126;47.508;8.590;2022-11-20T01:20:44;15.65;;;6.65;;
61250;SDS011;47126;47.508;8.590;2022-11-20T01:23:10;11.70;;;6.28;;
61250;SDS011;47126;47.508;8.590;2022-11-20T01:25:36;14.48;;;6.95;;
61250;SDS011;47126;47.508;8.590;2022-11-20T01:28:02;12.23;;;6.65;;
61250;SDS011;47126;47.508;8.590;2022-11-20T01:30:28;14.75;;;6.85;;
61250;SDS011;47126;47.508;8.590;2022-11-20T01:32:54;15.40;;;6.88;;
61250;SDS011;47126;47.508;8.590;2022-11-20T01:35:21;14.77;;;7.20;;
61250;SDS011;47126;47.508;8.590;2022-11-20T01:37:47;12.52;;;6.03;;
61250;SDS011;47126;47.508;8.590;2022-11-20T01:40:13;12.18;;;6.80;;
61250;SDS011;47126;47.508;8.590;2022-11-20T01:42:43;12.70;;;7.47;;
61250;SDS011;47126;47.508;8.590;2022-11-20T01:48:14;14.25;;;7.18;;
61250;SDS011;47126;47.508;8.590;2022-11-20T01:50:40;13.68;;;6.93;;
61250;SDS011;47126;47.508;8.590;2022-11-20T01:53:08;17.15;;;7.40;;
61250;SDS011;47126;47.508;8.590;2022-11-20T01:55:36;13.15;;;6.60;;
61250;SDS011;47126;47.508;8.590;2022-11-20T01:58:05;13.65;;;7.30;;
61250;SDS011;47126;47.508;8.590;2022-11-20T02:00:32;11.88;;;6.57;;
61250;SDS011;47126;47.508;8.590;2022-11-20T02:03:01;12.52;;;6.70;;
61250;SDS011;47126;47.508;8.590;2022-11-20T02:05:33;11.90;;;6.63;;
61250;SDS011;47126;47.508;8.590;2022-11-20T02:08:01;22.25;;;7.80;;
61250;SDS011;47126;47.508;8.590;2022-11-20T02:10:28;13.98;;;6.97;;
61250;SDS011;47126;47.508;8.590;2022-11-20T02:12:55;14.85;;;6.90;;
61250;SDS011;47126;47.508;8.590;2022-11-20T02:15:40;12.80;;;6.53;;
61250;SDS011;47126;47.508;8.590;2022-11-20T02:18:06;9.38;;;4.15;;
61250;SDS011;47126;47.508;8.590;2022-11-20T02:20:32;7.20;;;3.47;;
61250;SDS011;47126;47.508;8.590;2022-11-20T02:23:03;8.60;;;4.13;;
61250;SDS011;47126;47.508;8.590;2022-11-20T02:25:30;10.65;;;3.70;;
61250;SDS011;47126;47.508;8.590;2022-11-20T02:27:58;8.60;;;3.78;;
61250;SDS011;47126;47.508;8.590;2022-11-20T02:30:24;6.85;;;3.63;;
61250;SDS011;47126;47.508;8.590;2022-11-20T02:32:50;6.13;;;2.80;;
61250;SDS011;47126;47.508;8.590;2022-11-20T02:37:48;6.63;;;3.20;;
61250;SDS011;47126;47.508;8.590;2022-11-20T02:40:15;4.57;;;2.72;;
61250;SDS011;47126;47.508;8.590;2022-11-20T02:42:42;6.82;;;3.20;;
61250;SDS011;47126;47.508;8.590;2022-11-20T02:45:08;5.93;;;2.92;;
61250;SDS011;47126;47.508;8.590;2022-11-20T02:47:34;6.68;;;3.10;;
61250;SDS011;47126;47.508;8.590;2022-11-20T02:50:00;3.72;;;2.47;;
61250;SDS011;47126;47.508;8.590;2022-11-20T02:52:26;4.65;;;2.67;;
61250;SDS011;47126;47.508;8.590;2022-11-20T02:54:52;5.97;;;3.50;;
61250;SDS011;47126;47.508;8.590;2022-11-20T02:57:18;6.22;;;2.47;;
61250;SDS011;47126;47.508;8.590;2022-11-20T02:59:44;4.85;;;2.53;;
61250;SDS011;47126;47.508;8.590;2022-11-20T03:02:10;5.47;;;2.63;;
61250;SDS011;47126;47.508;8.590;2022-11-20T03:04:36;6.50;;;2.63;;
61250;SDS011;47126;47.508;8.590;2022-11-20T03:07:02;6.80;;;3.05;;
61250;SDS011;47126;47.508;8.590;2022-11-20T03:09:28;5.20;;;2.45;;
61250;SDS011;47126;47.508;8.590;2022-11-20T03:11:54;7.78;;;2.50;;
61250;SDS011;47126;47.508;8.590;2022-11-20T03:14:20;5.63;;;2.40;;
61250;SDS011;47126;47.508;8.590;2022-11-20T03:16:46;4.68;;;2.20;;
61250;SDS011;47126;47.508;8.590;2022-11-20T03:19:12;5.88;;;2.38;;
61250;SDS011;47126;47.508;8.590;2022-11-20T03:21:39;5.20;;;2.40;;
61250;SDS011;47126;47.508;8.590;2022-11-20T03:24:05;3.80;;;2.50;;
61250;SDS011;47126;47.508;8.590;2022-11-20T03:26:31;4.50;;;2.53;;
61250;SDS011;47126;47.508;8.590;2022-11-20T03:28:58;4.50;;;2.85;;
61250;SDS011;47126;47.508;8.590;2022-11-20T03:31:26;9.52;;;6.90;;
61250;SDS011;47126;47.508;8.590;2022-11-20T03:33:52;11.95;;;8.32;;
61250;SDS011;47126;47.508;8.590;2022-11-20T03:36:18;10.27;;;7.50;;
61250;SDS011;47126;47.508;8.590;2022-11-20T03:38:45;7.28;;;4.78;;
61250;SDS011;47126;47.508;8.590;2022-11-20T03:41:18;5.20;;;2.78;;
61250;SDS011;47126;47.508;8.590;2022-11-20T03:43:48;7.18;;;2.88;;
61250;SDS011;47126;47.508;8.590;2022-11-20T03:46:14;6.72;;;2.50;;
61250;SDS011;47126;47.508;8.590;2022-11-20T03:48:40;6.20;;;2.40;;
61250;SDS011;47126;47.508;8.590;2022-11-20T03:51:11;6.25;;;2.55;;
61250;SDS011;47126;47.508;8.590;2022-11-20T03:53:37;5.03;;;2.58;;
61250;SDS011;47126;47.508;8.590;2022-11-20T03:56:04;6.80;;;2.97;;
61250;SDS011;47126;47.508;8.590;2022-11-20T03:58:30;6.20;;;3.08;;
61250;SDS011;47126;47.508;8.590;2022-11-20T04:00:56;4.78;;;2.90;;
61250;SDS011;47126;47.508;8.590;2022-11-20T04:03:22;6.65;;;3.08;;
61250;SDS011;47126;47.508;8.590;2022-11-20T04:05:48;5.53;;;2.50;;
61250;SDS011;47126;47.508;8.590;2022-11-20T04:08:14;5.43;;;2.47;;
61250;SDS011;47126;47.508;8.590;2022-11-20T04:10:40;4.70;;;2.60;;
61250;SDS011;47126;47.508;8.590;2022-11-20T04:13:06;6.43;;;2.65;;
61250;SDS011;47126;47.508;8.590;2022-11-20T04:15:32;5.35;;;2.90;;
61250;SDS011;47126;47.508;8.590;2022-11-20T04:17:58;5.75;;;2.60;;
61250;SDS011;47126;47.508;8.590;2022-11-20T04:20:24;4.03;;;2.20;;
61250;SDS011;47126;47.508;8.590;2022-11-20T04:22:52;5.30;;;2.80;;
61250;SDS011;47126;47.508;8.590;2022-11-20T04:25:19;5.47;;;3.25;;
61250;SDS011;47126;47.508;8.590;2022-11-20T04:27:45;7.97;;;2.70;;
61250;SDS011;47126;47.508;8.590;2022-11-20T04:30:11;4.50;;;2.50;;
61250;SDS011;47126;47.508;8.590;2022-11-20T04:32:37;4.47;;;2.75;;
61250;SDS011;47126;47.508;8.590;2022-11-20T04:35:03;4.75;;;2.80;;
61250;SDS011;47126;47.508;8.590;2022-11-20T04:37:30;4.32;;;2.80;;
61250;SDS011;47126;47.508;8.590;2022-11-20T04:39:56;5.20;;;2.35;;
61250;SDS011;47126;47.508;8.590;2022-11-20T04:42:21;6.15;;;2.58;;
61250;SDS011;47126;47.508;8.590;2022-11-20T04:44:54;4.70;;;2.60;;
61250;SDS011;47126;47.508;8.590;2022-11-20T04:47:20;4.72;;;2.42;;
61250;SDS011;47126;47.508;8.590;2022-11-20T04:49:46;9.88;;;3.33;;
61250;SDS011;47126;47.508;8.590;2022-11-20T04:52:12;6.30;;;3.67;;
61250;SDS011;47126;47.508;8.590;2022-11-20T04:54:38;6.75;;;3.17;;
61250;SDS011;47126;47.508;8.590;2022-11-20T04:57:04;4.80;;;2.90;;
61250;SDS011;47126;47.508;8.590;2022-11-20T04:59:30;4.78;;;3.00;;
61250;SDS011;47126;47.508;8.590;2022-11-20T05:01:56;8.27;;;3.42;;
61250;SDS011;47126;47.508;8.590;2022-11-20T05:04:22;6.93;;;3.70;;
61250;SDS011;47126;47.508;8.590;2022-11-20T05:06:49;7.47;;;3.15;;
61250;SDS011;47126;47.508;8.590;2022-11-20T05:09:15;5.10;;;2.75;;
61250;SDS011;47126;47.508;8.590;2022-11-20T05:11:41;5.18;;;3.75;;
61250;SDS011;47126;47.508;8.590;2022-11-20T05:14:07;5.15;;;2.50;;
61250;SDS011;47126;47.508;8.590;2022-11-20T05:16:33;4.38;;;2.38;;
61250;SDS011;47126;47.508;8.590;2022-11-20T05:19:00;4.55;;;2.50;;
61250;SDS011;47126;47.508;8.590;2022-11-20T05:21:26;5.35;;;2.20;;
61250;SDS011;47126;47.508;8.590;2022-11-20T05:23:52;4.90;;;2.10;;
61250;SDS011;47126;47.508;8.590;2022-11-20T05:26:22;4.85;;;2.20;;
61250;SDS011;47126;47.508;8.590;2022-11-20T05:28:48;4.78;;;2.25;;
61250;SDS011;47126;47.508;8.590;2022-11-20T05:31:16;5.68;;;2.05;;
61250;SDS011;47126;47.508;8.590;2022-11-20T05:33:43;4.68;;;2.75;;
61250;SDS011;47126;47.508;8.590;2022-11-20T05:36:09;5.22;;;2.90;;
61250;SDS011;47126;47.508;8.590;2022-11-20T05:38:35;5.57;;;3.20;;
61250;SDS011;47126;47.508;8.590;2022-11-20T05:43:34;6.50;;;2.97;;
61250;SDS011;47126;47.508;8.590;2022-11-20T05:46:00;6.65;;;3.58;;
61250;SDS011;47126;47.508;8.590;2022-11-20T05:48:26;7.65;;;3.40;;
61250;SDS011;47126;47.508;8.590;2022-11-20T05:50:52;10.93;;;4.28;;
61250;SDS011;47126;47.508;8.590;2022-11-20T05:53:18;10.45;;;3.75;;
61250;SDS011;47126;47.508;8.590;2022-11-20T05:55:44;7.85;;;3.60;;
61250;SDS011;47126;47.508;8.590;2022-11-20T05:58:10;5.97;;;3.38;;
61250;SDS011;47126;47.508;8.590;2022-11-20T06:00:36;8.02;;;3.90;;
61250;SDS011;47126;47.508;8.590;2022-11-20T06:03:02;5.93;;;3.47;;
61250;SDS011;47126;47.508;8.590;2022-11-20T06:05:28;6.93;;;3.47;;
61250;SDS011;47126;47.508;8.590;2022-11-20T06:07:54;8.35;;;3.88;;
61250;SDS011;47126;47.508;8.590;2022-11-20T06:10:20;7.03;;;3.67;;
61250;SDS011;47126;47.508;8.590;2022-11-20T06:12:46;7.95;;;4.65;;
61250;SDS011;47126;47.508;8.590;2022-11-20T06:15:12;6.95;;;4.20;;
61250;SDS011;47126;47.508;8.590;2022-11-20T06:17:38;9.52;;;4.15;;
61250;SDS011;47126;47.508;8.590;2022-11-20T06:20:04;9.95;;;3.97;;
61250;SDS011;47126;47.508;8.590;2022-11-20T06:22:31;8.02;;;4.15;;
61250;SDS011;47126;47.508;8.590;2022-11-20T06:24:57;8.57;;;3.45;;
61250;SDS011;47126;47.508;8.590;2022-11-20T06:27:23;8.82;;;6.07;;
61250;SDS011;47126;47.508;8.590;2022-11-20T06:29:49;9.15;;;4.43;;
61250;SDS011;47126;47.508;8.590;2022-11-20T06:32:15;6.70;;;3.83;;
61250;SDS011;47126;47.508;8.590;2022-11-20T06:34:41;9.00;;;3.88;;
61250;SDS011;47126;47.508;8.590;2022-11-20T06:37:08;5.72;;;3.22;;
61250;SDS011;47126;47.508;8.590;2022-11-20T06:39:34;9.98;;;5.05;;
61250;SDS011;47126;47.508;8.590;2022-11-20T06:42:00;14.02;;;10.45;;
61250;SDS011;47126;47.508;8.590;2022-11-20T06:44:26;13.25;;;6.30;;
61250;SDS011;47126;47.508;8.590;2022-11-20T06:46:52;8.73;;;6.05;;
61250;SDS011;47126;47.508;8.590;2022-11-20T06:49:18;6.45;;;4.10;;
61250;SDS011;47126;47.508;8.590;2022-11-20T06:51:44;9.38;;;4.75;;
61250;SDS011;47126;47.508;8.590;2022-11-20T06:54:10;8.98;;;4.18;;
61250;SDS011;47126;47.508;8.590;2022-11-20T06:56:36;10.85;;;5.60;;
61250;SDS011;47126;47.508;8.590;2022-11-20T06:59:06;19.15;;;9.35;;
61250;SDS011;47126;47.508;8.590;2022-11-20T07:01:32;10.25;;;5.30;;
61250;SDS011;47126;47.508;8.590;2022-11-20T07:03:58;8.70;;;4.53;;
61250;SDS011;47126;47.508;8.590;2022-11-20T07:06:24;10.43;;;4.57;;
61250;SDS011;47126;47.508;8.590;2022-11-20T07:08:50;15.85;;;6.50;;
61250;SDS011;47126;47.508;8.590;2022-11-20T07:11:17;11.10;;;6.05;;
61250;SDS011;47126;47.508;8.590;2022-11-20T07:13:43;10.25;;;5.38;;
61250;SDS011;47126;47.508;8.590;2022-11-20T07:16:09;8.32;;;4.00;;
61250;SDS011;47126;47.508;8.590;2022-11-20T07:18:35;7.88;;;3.40;;
61250;SDS011;47126;47.508;8.590;2022-11-20T07:21:06;6.35;;;3.20;;
61250;SDS011;47126;47.508;8.590;2022-11-20T07:23:32;7.10;;;3.58;;
61250;SDS011;47126;47.508;8.590;2022-11-20T07:26:02;7.65;;;3.70;;
61250;SDS011;47126;47.508;8.590;2022-11-20T07:28:28;8.10;;;4.00;;
61250;SDS011;47126;47.508;8.590;2022-11-20T07:30:54;6.45;;;3.30;;
61250;SDS011;47126;47.508;8.590;2022-11-20T07:33:20;8.00;;;4.53;;
61250;SDS011;47126;47.508;8.590;2022-11-20T07:35:46;5.53;;;3.35;;
61250;SDS011;47126;47.508;8.590;2022-11-20T07:38:12;7.32;;;3.35;;
61250;SDS011;47126;47.508;8.590;2022-11-20T07:40:38;5.22;;;3.15;;
61250;SDS011;47126;47.508;8.590;2022-11-20T07:43:04;9.82;;;4.07;;
61250;SDS011;47126;47.508;8.590;2022-11-20T07:45:30;7.63;;;3.25;;
61250;SDS011;47126;47.508;8.590;2022-11-20T07:47:56;5.85;;;3.05;;
61250;SDS011;47126;47.508;8.590;2022-11-20T07:50:22;6.13;;;3.40;;
61250;SDS011;47126;47.508;8.590;2022-11-20T07:52:48;6.03;;;3.30;;
61250;SDS011;47126;47.508;8.590;2022-11-20T07:55:14;6.47;;;3.40;;
61250;SDS011;47126;47.508;8.590;2022-11-20T07:57:40;7.03;;;3.40;;
61250;SDS011;47126;47.508;8.590;2022-11-20T08:00:07;9.02;;;5.55;;
61250;SDS011;47126;47.508;8.590;2022-11-20T08:02:37;9.90;;;3.28;;
61250;SDS011;47126;47.508;8.590;2022-11-20T08:05:04;7.80;;;3.15;;
61250;SDS011;47126;47.508;8.590;2022-11-20T08:07:34;7.35;;;3.08;;
61250;SDS011;47126;47.508;8.590;2022-11-20T08:10:00;5.30;;;3.15;;
61250;SDS011;47126;47.508;8.590;2022-11-20T08:12:26;6.55;;;3.00;;
61250;SDS011;47126;47.508;8.590;2022-11-20T08:15:11;6.15;;;2.80;;
61250;SDS011;47126;47.508;8.590;2022-11-20T08:17:37;8.23;;;3.15;;
61250;SDS011;47126;47.508;8.590;2022-11-20T08:20:03;6.13;;;3.50;;
61250;SDS011;47126;47.508;8.590;2022-11-20T08:22:29;4.93;;;2.70;;
61250;SDS011;47126;47.508;8.590;2022-11-20T08:24:55;7.10;;;3.13;;
61250;SDS011;47126;47.508;8.590;2022-11-20T08:27:21;6.78;;;3.05;;
61250;SDS011;47126;47.508;8.590;2022-11-20T08:29:47;5.53;;;2.97;;
61250;SDS011;47126;47.508;8.590;2022-11-20T08:32:13;5.20;;;2.53;;
61250;SDS011;47126;47.508;8.590;2022-11-20T08:34:39;4.80;;;2.53;;
61250;SDS011;47126;47.508;8.590;2022-11-20T08:37:05;8.90;;;2.90;;
61250;SDS011;47126;47.508;8.590;2022-11-20T08:39:31;6.53;;;3.50;;
61250;SDS011;47126;47.508;8.590;2022-11-20T08:41:57;6.00;;;3.05;;
61250;SDS011;47126;47.508;8.590;2022-11-20T08:44:23;5.35;;;2.80;;
61250;SDS011;47126;47.508;8.590;2022-11-20T08:46:49;5.38;;;2.40;;
61250;SDS011;47126;47.508;8.590;2022-11-20T08:49:15;8.70;;;4.80;;
61250;SDS011;47126;47.508;8.590;2022-11-20T08:51:42;6.68;;;3.85;;
61250;SDS011;47126;47.508;8.590;2022-11-20T08:54:08;4.53;;;2.65;;
61250;SDS011;47126;47.508;8.590;2022-11-20T08:56:34;5.32;;;2.00;;
61250;SDS011;47126;47.508;8.590;2022-11-20T08:59:00;5.68;;;2.70;;
61250;SDS011;47126;47.508;8.590;2022-11-20T09:01:27;4.47;;;2.08;;
61250;SDS011;47126;47.508;8.590;2022-11-20T09:03:57;2.72;;;2.00;;
61250;SDS011;47126;47.508;8.590;2022-11-20T09:06:24;4.68;;;2.08;;
61250;SDS011;47126;47.508;8.590;2022-11-20T09:08:54;4.03;;;2.38;;
61250;SDS011;47126;47.508;8.590;2022-11-20T09:11:20;2.63;;;1.67;;
61250;SDS011;47126;47.508;8.590;2022-11-20T09:13:46;5.13;;;2.30;;
61250;SDS011;47126;47.508;8.590;2022-11-20T09:16:12;3.90;;;2.10;;
61250;SDS011;47126;47.508;8.590;2022-11-20T09:18:38;4.32;;;2.00;;
61250;SDS011;47126;47.508;8.590;2022-11-20T09:21:06;4.47;;;2.03;;
61250;SDS011;47126;47.508;8.590;2022-11-20T09:23:33;4.13;;;2.42;;
61250;SDS011;47126;47.508;8.590;2022-11-20T09:26:06;4.60;;;2.20;;
61250;SDS011;47126;47.508;8.590;2022-11-20T09:28:33;3.47;;;1.83;;
61250;SDS011;47126;47.508;8.590;2022-11-20T09:30:59;2.95;;;1.90;;
61250;SDS011;47126;47.508;8.590;2022-11-20T09:33:25;4.45;;;1.70;;
61250;SDS011;47126;47.508;8.590;2022-11-20T09:35:51;4.20;;;1.77;;
61250;SDS011;47126;47.508;8.590;2022-11-20T09:38:18;3.67;;;1.50;;
61250;SDS011;47126;47.508;8.590;2022-11-20T09:40:45;3.38;;;1.80;;
61250;SDS011;47126;47.508;8.590;2022-11-20T09:43:19;2.80;;;1.90;;
61250;SDS011;47126;47.508;8.590;2022-11-20T09:51:12;4.22;;;1.58;;
61250;SDS011;47126;47.508;8.590;2022-11-20T09:53:46;3.97;;;2.38;;
61250;SDS011;47126;47.508;8.590;2022-11-20T09:56:16;2.30;;;1.70;;
61250;SDS011;47126;47.508;8.590;2022-11-20T09:58:46;5.20;;;1.80;;
61250;SDS011;47126;47.508;8.590;2022-11-20T10:01:15;2.70;;;1.80;;
61250;SDS011;47126;47.508;8.590;2022-11-20T10:06:12;3.25;;;1.65;;
61250;SDS011;47126;47.508;8.590;2022-11-20T10:08:41;4.30;;;2.78;;
61250;SDS011;47126;47.508;8.590;2022-11-20T10:16:23;3.13;;;1.60;;
61250;SDS011;47126;47.508;8.590;2022-11-20T10:22:26;5.25;;;1.95;;
61250;SDS011;47126;47.508;8.590;2022-11-20T10:24:34;2.17;;;1.45;;
61250;SDS011;47126;47.508;8.590;2022-11-20T10:29:33;2.28;;;1.60;;
61250;SDS011;47126;47.508;8.590;2022-11-20T10:32:01;4.20;;;2.00;;
61250;SDS011;47126;47.508;8.590;2022-11-20T10:34:29;4.63;;;1.83;;
61250;SDS011;47126;47.508;8.590;2022-11-20T10:36:58;3.15;;;1.92;;
61250;SDS011;47126;47.508;8.590;2022-11-20T10:39:31;4.82;;;1.95;;
61250;SDS011;47126;47.508;8.590;2022-11-20T10:41:58;2.95;;;1.60;;
61250;SDS011;47126;47.508;8.590;2022-11-20T10:44:28;3.63;;;2.13;;
61250;SDS011;47126;47.508;8.590;2022-11-20T10:47:17;3.72;;;1.60;;
61250;SDS011;47126;47.508;8.590;2022-11-20T10:49:43;5.43;;;4.50;;
61250;SDS011;47126;47.508;8.590;2022-11-20T10:54:41;3.00;;;1.75;;
61250;SDS011;47126;47.508;8.590;2022-11-20T11:02:17;5.20;;;1.52;;
61250;SDS011;47126;47.508;8.590;2022-11-20T11:04:49;3.95;;;1.60;;
61250;SDS011;47126;47.508;8.590;2022-11-20T11:07:33;2.70;;;1.33;;
61250;SDS011;47126;47.508;8.590;2022-11-20T11:10:00;2.47;;;1.30;;
61250;SDS011;47126;47.508;8.590;2022-11-20T11:12:27;3.75;;;1.65;;
61250;SDS011;47126;47.508;8.590;2022-11-20T11:14:54;2.25;;;1.20;;
61250;SDS011;47126;47.508;8.590;2022-11-20T11:17:25;3.00;;;1.60;;
61250;SDS011;47126;47.508;8.590;2022-11-20T11:22:24;4.05;;;1.65;;
61250;SDS011;47126;47.508;8.590;2022-11-20T11:24:53;4.45;;;1.40;;
61250;SDS011;47126;47.508;8.590;2022-11-20T11:27:19;3.50;;;1.50;;
61250;SDS011;47126;47.508;8.590;2022-11-20T11:29:46;4.40;;;1.50;;
61250;SDS011;47126;47.508;8.590;2022-11-20T11:32:17;3.35;;;1.40;;
61250;SDS011;47126;47.508;8.590;2022-11-20T11:34:43;5.07;;;1.48;;
61250;SDS011;47126;47.508;8.590;2022-11-20T11:37:13;3.50;;;1.75;;
61250;SDS011;47126;47.508;8.590;2022-11-20T11:42:07;4.70;;;1.65;;
61250;SDS011;47126;47.508;8.590;2022-11-20T11:44:35;4.13;;;2.03;;
61250;SDS011;47126;47.508;8.590;2022-11-20T11:47:21;4.93;;;1.50;;
61250;SDS011;47126;47.508;8.590;2022-11-20T11:49:54;2.38;;;1.20;;
61250;SDS011;47126;47.508;8.590;2022-11-20T11:52:25;2.95;;;1.50;;
61250;SDS011;47126;47.508;8.590;2022-11-20T11:54:53;4.45;;;1.60;;
61250;SDS011;47126;47.508;8.590;2022-11-20T12:08:10;3.58;;;2.22;;
61250;SDS011;47126;47.508;8.590;2022-11-20T12:15:52;2.72;;;2.08;;
61250;SDS011;47126;47.508;8.590;2022-11-20T12:18:19;7.85;;;2.83;;
61250;SDS011;47126;47.508;8.590;2022-11-20T12:21:08;6.85;;;2.10;;
61250;SDS011;47126;47.508;8.590;2022-11-20T12:26:26;2.83;;;1.50;;
61250;SDS011;47126;47.508;8.590;2022-11-20T12:31:26;2.90;;;1.50;;
61250;SDS011;47126;47.508;8.590;2022-11-20T12:34:43;5.32;;;2.10;;
61250;SDS011;47126;47.508;8.590;2022-11-20T12:36:45;3.30;;;1.63;;
61250;SDS011;47126;47.508;8.590;2022-11-20T12:39:22;5.00;;;1.73;;
61250;SDS011;47126;47.508;8.590;2022-11-20T12:44:44;2.20;;;1.35;;
61250;SDS011;47126;47.508;8.590;2022-11-20T12:52:58;3.53;;;1.23;;
61250;SDS011;47126;47.508;8.590;2022-11-20T12:58:12;4.60;;;1.80;;
61250;SDS011;47126;47.508;8.590;2022-11-20T13:00:46;3.50;;;2.10;;
61250;SDS011;47126;47.508;8.590;2022-11-20T13:08:35;3.20;;;1.10;;
61250;SDS011;47126;47.508;8.590;2022-11-20T13:13:56;1.92;;;1.00;;
61250;SDS011;47126;47.508;8.590;2022-11-20T13:16:33;2.00;;;1.10;;
61250;SDS011;47126;47.508;8.590;2022-11-20T13:19:05;5.38;;;2.22;;
61250;SDS011;47126;47.508;8.590;2022-11-20T13:21:35;3.50;;;1.33;;
61250;SDS011;47126;47.508;8.590;2022-11-20T13:24:06;4.35;;;2.10;;
61250;SDS011;47126;47.508;8.590;2022-11-20T13:26:32;1.97;;;1.30;;
61250;SDS011;47126;47.508;8.590;2022-11-20T13:29:00;4.68;;;1.50;;
61250;SDS011;47126;47.508;8.590;2022-11-20T13:31:34;3.63;;;1.30;;
61250;SDS011;47126;47.508;8.590;2022-11-20T13:34:02;3.67;;;1.90;;
61250;SDS011;47126;47.508;8.590;2022-11-20T13:36:29;4.15;;;1.80;;
61250;SDS011;47126;47.508;8.590;2022-11-20T13:38:57;5.10;;;2.00;;
61250;SDS011;47126;47.508;8.590;2022-11-20T13:41:33;2.03;;;1.60;;
61250;SDS011;47126;47.508;8.590;2022-11-20T13:46:37;3.78;;;2.97;;
61250;SDS011;47126;47.508;8.590;2022-11-20T13:49:06;1.83;;;1.40;;
61250;SDS011;47126;47.508;8.590;2022-11-20T13:51:41;3.38;;;1.55;;
61250;SDS011;47126;47.508;8.590;2022-11-20T14:02:25;3.10;;;1.50;;
61250;SDS011;47126;47.508;8.590;2022-11-20T14:04:51;4.00;;;1.60;;
61250;SDS011;47126;47.508;8.590;2022-11-20T14:07:18;4.60;;;1.70;;
61250;SDS011;47126;47.508;8.590;2022-11-20T14:09:49;3.55;;;1.67;;
61250;SDS011;47126;47.508;8.590;2022-11-20T14:12:17;2.97;;;1.30;;
61250;SDS011;47126;47.508;8.590;2022-11-20T14:14:50;3.53;;;1.80;;
61250;SDS011;47126;47.508;8.590;2022-11-20T14:19:42;2.40;;;1.45;;
61250;SDS011;47126;47.508;8.590;2022-11-20T14:22:16;2.10;;;1.20;;
61250;SDS011;47126;47.508;8.590;2022-11-20T14:24:43;2.95;;;1.42;;
61250;SDS011;47126;47.508;8.590;2022-11-20T14:27:13;3.55;;;1.08;;
61250;SDS011;47126;47.508;8.590;2022-11-20T14:29:39;4.23;;;1.10;;
61250;SDS011;47126;47.508;8.590;2022-11-20T14:32:08;3.72;;;1.27;;
61250;SDS011;47126;47.508;8.590;2022-11-20T14:34:38;2.35;;;1.02;;
61250;SDS011;47126;47.508;8.590;2022-11-20T14:37:06;2.38;;;1.35;;
61250;SDS011;47126;47.508;8.590;2022-11-20T14:39:36;7.65;;;2.60;;
61250;SDS011;47126;47.508;8.590;2022-11-20T14:42:10;5.95;;;3.00;;
61250;SDS011;47126;47.508;8.590;2022-11-20T14:44:39;6.15;;;2.53;;
61250;SDS011;47126;47.508;8.590;2022-11-20T14:47:05;3.05;;;1.50;;
61250;SDS011;47126;47.508;8.590;2022-11-20T14:49:33;7.82;;;3.30;;
61250;SDS011;47126;47.508;8.590;2022-11-20T14:52:00;8.68;;;4.32;;
61250;SDS011;47126;47.508;8.590;2022-11-20T14:54:26;6.13;;;3.10;;
61250;SDS011;47126;47.508;8.590;2022-11-20T14:56:57;4.25;;;2.08;;
61250;SDS011;47126;47.508;8.590;2022-11-20T14:59:23;4.25;;;2.47;;
61250;SDS011;47126;47.508;8.590;2022-11-20T15:02:06;4.82;;;2.28;;
61250;SDS011;47126;47.508;8.590;2022-11-20T15:04:44;4.55;;;3.17;;
61250;SDS011;47126;47.508;8.590;2022-11-20T15:07:09;9.90;;;5.22;;
61250;SDS011;47126;47.508;8.590;2022-11-20T15:09:35;11.60;;;6.53;;
61250;SDS011;47126;47.508;8.590;2022-11-20T15:12:02;8.07;;;3.97;;
61250;SDS011;47126;47.508;8.590;2022-11-20T15:14:28;6.28;;;3.60;;
61250;SDS011;47126;47.508;8.590;2022-11-20T15:16:57;8.13;;;3.80;;
61250;SDS011;47126;47.508;8.590;2022-11-20T15:19:24;6.55;;;3.40;;
61250;SDS011;47126;47.508;8.590;2022-11-20T15:21:51;4.55;;;2.28;;
61250;SDS011;47126;47.508;8.590;2022-11-20T15:24:17;5.15;;;1.90;;
61250;SDS011;47126;47.508;8.590;2022-11-20T15:26:43;4.70;;;1.70;;
61250;SDS011;47126;47.508;8.590;2022-11-20T15:29:10;4.72;;;1.75;;
61250;SDS011;47126;47.508;8.590;2022-11-20T15:31:36;3.38;;;1.23;;
61250;SDS011;47126;47.508;8.590;2022-11-20T15:34:07;4.65;;;1.73;;
61250;SDS011;47126;47.508;8.590;2022-11-20T15:36:34;3.03;;;1.40;;
61250;SDS011;47126;47.508;8.590;2022-11-20T15:39:00;3.67;;;1.65;;
61250;SDS011;47126;47.508;8.590;2022-11-20T15:41:27;3.05;;;1.70;;
61250;SDS011;47126;47.508;8.590;2022-11-20T15:43:53;5.20;;;1.55;;
61250;SDS011;47126;47.508;8.590;2022-11-20T15:46:23;6.38;;;1.77;;
61250;SDS011;47126;47.508;8.590;2022-11-20T15:48:51;2.47;;;1.55;;
61250;SDS011;47126;47.508;8.590;2022-11-20T15:51:27;4.55;;;1.95;;
61250;SDS011;47126;47.508;8.590;2022-11-20T15:53:55;6.20;;;1.55;;
61250;SDS011;47126;47.508;8.590;2022-11-20T15:56:21;4.22;;;1.50;;
61250;SDS011;47126;47.508;8.590;2022-11-20T15:58:47;5.63;;;1.60;;
61250;SDS011;47126;47.508;8.590;2022-11-20T16:01:14;4.18;;;1.85;;
61250;SDS011;47126;47.508;8.590;2022-11-20T16:03:41;5.18;;;1.73;;
61250;SDS011;47126;47.508;8.590;2022-11-20T16:06:07;3.10;;;1.50;;
61250;SDS011;47126;47.508;8.590;2022-11-20T16:08:33;3.10;;;1.58;;
61250;SDS011;47126;47.508;8.590;2022-11-20T16:10:59;5.63;;;2.50;;
61250;SDS011;47126;47.508;8.590;2022-11-20T16:13:25;6.45;;;2.95;;
61250;SDS011;47126;47.508;8.590;2022-11-20T16:16:14;8.52;;;3.97;;
61250;SDS011;47126;47.508;8.590;2022-11-20T16:18:44;10.93;;;7.15;;
61250;SDS011;47126;47.508;8.590;2022-11-20T16:21:11;12.30;;;4.72;;
61250;SDS011;47126;47.508;8.590;2022-11-20T16:23:38;11.05;;;7.03;;
61250;SDS011;47126;47.508;8.590;2022-11-20T16:26:14;8.38;;;5.93;;